Time;durP1;ratioP1;P1;durP2;ratioP2;P2;SDS_P1;SDS_P2;PMS_P1;PMS_P2;Temp;Humidity;BMP_temperature;BMP_pressure;BME280_temperature;BME280_humidity;BME280_pressure;Samples;Min_cycle;Max_cycle;Signal;HPM_P1;HPM_P2
2022/11/05 00:10:27;;;;;;;20.63;17.42;;;;;;;12.01;66.64;94502.47;5075357;28;20178;-70
2022/11/05 00:18:23;;;;;;;23.27;18.85;;;;;;;12.04;66.86;94505.28;5137951;27;20191;-70
2022/11/05 00:20:51;;;;;;;20.33;18.05;;;;;;;12.04;66.64;94505.28;5136892;27;20648;-70
2022/11/05 00:26:06;;;;;;;20.63;18.10;;;;;;;12.07;66.43;94494.66;5136712;27;20611;-70
2022/11/05 00:28:33;;;;;;;21.98;18.63;;;;;;;12.10;66.79;94496.69;5137337;27;20179;-70
2022/11/05 00:31:01;;;;;;;24.48;18.95;;;;;;;12.10;66.70;94497.47;5137091;27;20197;-70
2022/11/05 00:33:28;;;;;;;22.55;18.30;;;;;;;12.03;66.94;94494.63;5136773;27;20259;-70
2022/11/05 00:35:56;;;;;;;26.45;19.17;;;;;;;12.04;67.30;94490.66;5136849;27;20194;-70
2022/11/05 00:38:23;;;;;;;21.98;18.50;;;;;;;12.05;67.13;94497.78;5138251;27;20219;-70
2022/11/05 00:40:50;;;;;;;23.95;18.30;;;;;;;11.98;67.41;94487.47;5136340;27;20242;-70
2022/11/05 00:46:01;;;;;;;22.58;19.40;;;;;;;12.01;67.15;94481.16;5137001;27;20328;-70
2022/11/05 00:51:14;;;;;;;22.42;18.67;;;;;;;12.03;67.24;94487.13;5136529;27;20190;-70
2022/11/05 00:53:41;;;;;;;23.23;18.30;;;;;;;12.01;67.11;94477.59;5137160;27;20601;-70
2022/11/05 00:56:08;;;;;;;22.45;19.00;;;;;;;11.97;67.58;94479.53;5137325;27;20180;-70
2022/11/05 00:58:35;;;;;;;23.00;19.40;;;;;;;11.95;67.60;94468.88;5119844;27;20214;-70
2022/11/05 01:01:02;;;;;;;23.25;19.65;;;;;;;11.96;67.45;94470.44;5137516;27;20195;-69
2022/11/05 01:03:30;;;;;;;22.67;19.63;;;;;;;11.90;67.34;94473.91;5136995;27;20540;-70
2022/11/05 01:05:59;;;;;;;21.15;18.63;;;;;;;11.90;67.78;94465.63;5137248;27;20187;-70
2022/11/05 01:08:28;;;;;;;23.05;18.38;;;;;;;11.91;67.63;94456.97;5137275;27;20183;-71
2022/11/05 01:10:56;;;;;;;21.38;18.35;;;;;;;11.87;67.68;94460.84;5136361;27;20194;-70
2022/11/05 01:13:25;;;;;;;24.02;19.17;;;;;;;11.86;67.69;94465.56;5136781;27;20183;-70
2022/11/05 01:15:52;;;;;;;22.25;18.13;;;;;;;11.86;68.05;94462.81;5137110;27;20255;-71
2022/11/05 01:18:20;;;;;;;20.73;18.20;;;;;;;11.88;68.04;94454.16;5135858;27;20211;-71
2022/11/05 01:20:47;;;;;;;19.73;17.63;;;;;;;11.90;67.81;94454.56;5136290;27;20199;-71
2022/11/05 01:23:14;;;;;;;23.52;18.23;;;;;;;11.89;67.87;94444.69;5135801;27;20197;-70
2022/11/05 01:25:42;;;;;;;21.92;19.08;;;;;;;11.91;68.16;94434.03;5135773;27;20198;-70
2022/11/05 01:28:10;;;;;;;20.20;18.08;;;;;;;11.86;68.20;94431.63;5136000;27;20202;-70
2022/11/05 01:30:37;;;;;;;20.75;17.23;;;;;;;11.81;68.66;94446.56;5136322;27;20194;-70
2022/11/05 01:33:05;;;;;;;21.27;18.52;;;;;;;11.84;68.40;94451.34;5136961;27;20202;-70
2022/11/05 01:35:32;;;;;;;20.67;18.58;;;;;;;11.83;68.17;94441.44;5136728;27;20179;-70
2022/11/05 01:37:59;;;;;;;23.92;18.23;;;;;;;11.79;68.26;94437.81;5136293;27;20227;-70
2022/11/05 01:40:26;;;;;;;20.88;18.17;;;;;;;11.76;68.36;94425.59;5136181;27;20227;-70
2022/11/05 01:42:54;;;;;;;20.92;17.70;;;;;;;11.70;68.16;94427.06;5136196;27;20205;-70
2022/11/05 01:45:23;;;;;;;20.00;17.90;;;;;;;11.63;68.49;94418.69;5135729;27;20198;-71
2022/11/05 01:47:56;;;;;;;24.17;18.85;;;;;;;11.63;68.89;94417.91;5136587;27;20187;-71
2022/11/05 01:50:33;;;;;;;21.67;18.92;;;;;;;11.62;68.89;94419.06;5136781;27;20179;-70
2022/11/05 01:53:10;;;;;;;22.55;18.30;;;;;;;11.61;68.42;94414.72;5135831;27;20194;-71
2022/11/05 01:55:40;;;;;;;21.85;18.45;;;;;;;11.53;68.83;94416.59;5134840;27;20190;-71
2022/11/05 01:58:10;;;;;;;21.90;18.55;;;;;;;11.41;68.91;94417.63;5136092;27;20199;-71
2022/11/05 02:00:37;;;;;;;23.27;19.27;;;;;;;11.39;69.27;94414.44;5118346;28;20206;-70
2022/11/05 02:03:04;;;;;;;21.38;18.33;;;;;;;11.41;69.19;94414.88;5135196;28;20179;-70
2022/11/05 02:05:33;;;;;;;22.15;18.05;;;;;;;11.45;69.62;94403.88;5136256;27;20183;-70
2022/11/05 02:08:00;;;;;;;21.67;18.55;;;;;;;11.47;69.52;94405.06;5136239;27;20188;-70
2022/11/05 02:10:28;;;;;;;21.55;18.25;;;;;;;11.43;68.87;94401.47;5135264;28;20194;-70
2022/11/05 02:12:55;;;;;;;20.70;18.08;;;;;;;11.38;69.66;94409.28;5135567;28;20195;-70
2022/11/05 02:15:30;;;;;;;22.33;18.85;;;;;;;11.38;69.42;94415.59;5135346;28;20206;-71
2022/11/05 02:18:10;;;;;;;23.00;18.95;;;;;;;11.38;70.03;94407.31;5135169;28;20207;-70
2022/11/05 02:20:42;;;;;;;23.20;18.45;;;;;;;11.39;69.63;94408.91;5136251;27;20252;-70
2022/11/05 02:23:43;;;;;;;25.75;19.25;;;;;;;11.39;69.81;94403.38;5136333;27;20217;-70
2022/11/05 02:26:41;;;;;;;22.30;19.10;;;;;;;11.35;69.46;94413.59;5136074;27;20189;-70
2022/11/05 02:29:39;;;;;;;20.45;18.25;;;;;;;11.31;69.27;94410.00;5135375;28;20194;-70
2022/11/05 02:32:13;;;;;;;22.65;19.08;;;;;;;11.26;69.78;94400.06;5130789;28;20595;-70
2022/11/05 02:34:50;;;;;;;23.95;18.58;;;;;;;11.22;69.51;94404.75;5135306;28;20195;-70
2022/11/05 02:37:25;;;;;;;23.77;18.75;;;;;;;11.18;69.68;94400.34;5134837;28;20268;-70
2022/11/05 02:39:56;;;;;;;23.35;18.92;;;;;;;11.19;70.03;94405.50;5136035;27;20254;-70
2022/11/05 02:42:31;;;;;;;21.20;17.77;;;;;;;11.15;70.02;94401.06;5135171;28;20653;-70
2022/11/05 02:45:05;;;;;;;22.15;19.42;;;;;;;11.15;70.15;94401.06;5136087;27;20183;-70
2022/11/05 02:47:38;;;;;;;23.85;19.58;;;;;;;11.06;69.72;94402.16;5134906;28;20191;-70
2022/11/05 02:50:14;;;;;;;25.55;21.30;;;;;;;11.02;69.29;94411.53;5135869;27;20194;-70
2022/11/05 02:52:47;;;;;;;26.08;20.23;;;;;;;10.98;69.56;94410.69;5136240;27;20239;-70
2022/11/05 02:55:19;;;;;;;24.05;19.65;;;;;;;10.85;69.40;94402.63;5135084;28;20520;-71
2022/11/05 02:57:48;;;;;;;27.50;21.00;;;;;;;10.79;69.87;94404.13;5134895;28;20207;-71
2022/11/05 03:00:41;;;;;;;26.67;21.05;;;;;;;10.84;70.15;94416.78;5135486;27;20660;-71
2022/11/05 03:03:14;;;;;;;23.15;20.05;;;;;;;10.80;69.87;94405.69;5135845;27;20218;-70
2022/11/05 03:05:48;;;;;;;25.70;19.98;;;;;;;10.83;70.68;94407.72;5135728;27;20183;-70
2022/11/05 03:08:24;;;;;;;23.05;20.30;;;;;;;10.81;70.26;94412.81;5139163;27;20187;-70
2022/11/05 03:10:57;;;;;;;24.60;20.05;;;;;;;10.81;70.06;94417.53;5139527;27;20178;-72
2022/11/05 03:13:28;;;;;;;24.25;19.85;;;;;;;10.81;70.28;94417.53;5138513;27;20511;-71
2022/11/05 03:15:57;;;;;;;24.65;18.83;;;;;;;10.76;70.24;94413.13;5138272;27;20191;-70
2022/11/05 03:18:31;;;;;;;23.77;18.65;;;;;;;10.77;70.59;94417.47;5138925;27;20218;-70
2022/11/05 03:21:01;;;;;;;25.02;18.70;;;;;;;10.79;70.75;94403.31;5138453;27;20198;-70
2022/11/05 03:23:31;;;;;;;22.00;18.02;;;;;;;10.79;70.60;94409.63;5138388;27;20191;-70
2022/11/05 03:26:03;;;;;;;24.08;19.60;;;;;;;10.80;70.52;94408.47;5139116;27;20180;-70
2022/11/05 03:28:34;;;;;;;22.02;17.70;;;;;;;10.77;70.45;94422.19;5138625;27;20213;-71
2022/11/05 03:31:02;;;;;;;24.05;18.30;;;;;;;10.73;70.86;94424.09;5138036;27;20223;-71
2022/11/05 03:33:32;;;;;;;23.23;18.40;;;;;;;10.72;70.81;94422.50;5139026;27;20194;-71
2022/11/05 03:36:01;;;;;;;20.77;18.27;;;;;;;10.79;70.88;94439.97;5138891;27;20194;-71
2022/11/05 03:38:32;;;;;;;21.02;17.60;;;;;;;10.78;70.64;94440.31;5138750;27;20231;-71
2022/11/05 03:41:01;;;;;;;21.88;18.02;;;;;;;10.80;70.69;94440.78;5138156;27;20203;-71
2022/11/05 03:43:30;;;;;;;22.08;18.45;;;;;;;10.81;70.78;94447.88;5138745;27;20194;-71
2022/11/05 03:46:01;;;;;;;21.08;17.85;;;;;;;10.84;70.67;94444.38;5138469;27;20179;-71
2022/11/05 03:48:30;;;;;;;20.92;17.63;;;;;;;10.87;70.27;94442.84;5137790;27;20206;-71
2022/11/05 03:51:04;;;;;;;22.88;18.15;;;;;;;10.85;70.48;94446.75;5137772;27;20199;-70
2022/11/05 03:53:35;;;;;;;21.30;17.63;;;;;;;10.87;70.92;94445.59;5137491;27;20195;-70
2022/11/05 03:56:06;;;;;;;22.42;18.77;;;;;;;10.86;70.66;94453.09;5138476;27;20179;-70
2022/11/05 03:58:33;;;;;;;24.35;18.10;;;;;;;10.85;70.28;94459.75;5138437;27;20230;-70
2022/11/05 04:01:02;;;;;;;24.20;18.85;;;;;;;10.81;70.40;94450.63;5138471;27;20202;-70
2022/11/05 04:03:34;;;;;;;24.77;17.80;;;;;;;10.73;70.06;94452.47;5138367;27;20271;-70
2022/11/05 04:14:15;;;;;;;24.40;18.25;;;;;;;10.49;70.33;94456.38;5137857;27;20167;-70
2022/11/05 04:24:53;;;;;;;24.83;19.83;;;;;;;10.46;70.62;94459.13;5137760;27;20198;-71
2022/11/05 04:27:20;;;;;;;24.23;19.88;;;;;;;10.49;70.59;94453.63;5138025;27;20203;-71
2022/11/05 04:32:31;;;;;;;21.52;18.58;;;;;;;10.49;70.97;94470.19;5137657;27;20207;-71
2022/11/05 04:34:58;;;;;;;25.13;19.95;;;;;;;10.54;71.29;94480.91;5137698;27;20195;-72
2022/11/05 04:37:26;;;;;;;26.80;20.90;;;;;;;10.53;70.85;94482.09;5136752;27;20679;-72
2022/11/05 04:39:52;;;;;;;27.33;21.63;;;;;;;10.53;70.90;94481.25;5136431;27;20234;-72
2022/11/05 04:42:19;;;;;;;27.30;22.25;;;;;;;10.54;71.16;94472.66;5137247;27;20531;-71
2022/11/05 04:44:46;;;;;;;25.92;21.48;;;;;;;10.53;70.90;94478.50;5137129;27;20202;-71
2022/11/05 04:47:13;;;;;;;29.38;22.23;;;;;;;10.49;71.01;94483.97;5136623;27;20195;-71
2022/11/05 04:49:39;;;;;;;27.73;20.92;;;;;;;10.49;71.15;94488.69;5136402;27;20203;-71
2022/11/05 04:52:06;;;;;;;27.17;20.48;;;;;;;10.52;71.51;94480.47;5136459;27;20191;-71
2022/11/05 04:54:34;;;;;;;29.42;23.30;;;;;;;10.55;71.38;94485.25;5136498;27;20206;-71
2022/11/05 04:57:01;;;;;;;30.33;22.42;;;;;;;10.52;71.30;94474.16;5136375;27;20199;-71
2022/11/05 04:59:28;;;;;;;25.90;20.42;;;;;;;10.52;71.25;94471.41;5137308;27;20230;-71
2022/11/05 05:01:55;;;;;;;29.45;23.45;;;;;;;10.46;71.16;94478.41;5136396;27;20195;-71
2022/11/05 05:04:22;;;;;;;29.75;22.88;;;;;;;10.40;71.31;94477.91;5137543;27;20175;-70
2022/11/05 05:06:49;;;;;;;28.80;22.88;;;;;;;10.42;71.59;94480.28;5136285;27;20187;-71
2022/11/05 05:09:16;;;;;;;26.10;23.25;;;;;;;10.42;71.32;94485.78;5136750;27;20191;-71
2022/11/05 05:11:44;;;;;;;27.70;22.60;;;;;;;10.42;71.50;94483.84;5136235;27;20199;-71
2022/11/05 05:14:11;;;;;;;27.10;20.58;;;;;;;10.43;71.45;94492.91;5137087;27;20270;-70
2022/11/05 05:16:38;;;;;;;27.13;20.33;;;;;;;10.42;71.38;94489.38;5136201;27;20226;-71
2022/11/05 05:19:05;;;;;;;25.35;20.83;;;;;;;10.45;71.46;94490.59;5136507;27;20510;-70
2022/11/05 05:21:41;;;;;;;27.42;19.80;;;;;;;10.42;71.43;94491.31;5136819;27;20191;-70
2022/11/05 05:24:09;;;;;;;27.35;22.83;;;;;;;10.36;71.08;94493.59;5137236;27;20198;-70
2022/11/05 05:26:36;;;;;;;24.13;19.95;;;;;;;10.30;71.42;94501.34;5136096;27;20203;-70
2022/11/05 05:29:06;;;;;;;23.23;19.00;;;;;;;10.33;71.34;94508.09;5136062;27;20198;-71
2022/11/05 05:31:33;;;;;;;23.63;20.05;;;;;;;10.29;71.80;94519.03;5135321;27;20195;-71
2022/11/05 05:34:00;;;;;;;26.30;19.60;;;;;;;10.32;71.70;94523.84;5135777;27;20615;-71
2022/11/05 05:36:27;;;;;;;23.55;19.30;;;;;;;10.31;72.17;94511.22;5136838;27;20190;-70
2022/11/05 05:38:54;;;;;;;23.80;20.13;;;;;;;10.38;72.20;94527.06;5136508;27;20223;-71
2022/11/05 05:41:21;;;;;;;25.15;20.25;;;;;;;10.46;72.34;94533.56;5135754;27;20260;-70
2022/11/05 05:43:48;;;;;;;24.90;20.73;;;;;;;10.55;72.15;94534.91;5136469;27;20187;-70
2022/11/05 05:46:17;;;;;;;25.33;20.20;;;;;;;10.62;71.86;94531.47;5136531;27;20190;-70
2022/11/05 05:48:48;;;;;;;26.00;21.05;;;;;;;10.67;72.09;94533.91;5136922;27;20171;-70
2022/11/05 05:51:15;;;;;;;26.20;22.52;;;;;;;10.70;72.14;94538.72;5136499;27;20274;-70
2022/11/05 05:53:42;;;;;;;27.13;23.00;;;;;;;10.76;71.91;94533.69;5135352;27;20202;-71
2022/11/05 05:56:09;;;;;;;28.77;23.67;;;;;;;10.77;72.29;94532.53;5136389;27;20198;-71
2022/11/05 05:58:37;;;;;;;29.58;22.95;;;;;;;10.81;72.20;94538.91;5136384;27;20202;-71
2022/11/05 06:01:06;;;;;;;31.42;22.60;;;;;;;10.85;72.22;94543.31;5136177;27;20210;-71
2022/11/05 06:03:34;;;;;;;28.95;23.30;;;;;;;10.87;71.86;94542.97;5135965;27;20183;-71
2022/11/05 06:06:02;;;;;;;30.08;25.65;;;;;;;10.89;72.12;94534.31;5135661;28;20191;-73
2022/11/05 06:08:30;;;;;;;28.80;24.35;;;;;;;10.90;72.01;94528.44;5135879;28;20183;-71
2022/11/05 06:10:56;;;;;;;28.63;22.15;;;;;;;10.92;71.99;94534.38;5136197;27;20190;-70
2022/11/05 06:13:24;;;;;;;27.10;23.02;;;;;;;10.95;71.86;94530.09;5135301;28;20206;-70
2022/11/05 06:15:50;;;;;;;30.05;23.75;;;;;;;10.97;72.03;94538.81;5135329;28;20299;-71
2022/11/05 06:18:17;;;;;;;24.98;21.63;;;;;;;11.00;71.80;94536.09;5135760;27;20614;-71
2022/11/05 06:20:46;;;;;;;27.27;22.20;;;;;;;11.02;71.77;94525.47;5136118;27;20198;-71
2022/11/05 06:23:12;;;;;;;25.63;21.33;;;;;;;11.07;71.76;94530.69;5135174;28;20198;-71
2022/11/05 06:25:39;;;;;;;28.38;22.33;;;;;;;11.13;71.85;94527.63;5135269;28;20191;-70
2022/11/05 06:28:06;;;;;;;28.05;22.00;;;;;;;11.18;71.84;94530.06;5135500;28;20199;-71
2022/11/05 06:30:33;;;;;;;24.73;20.67;;;;;;;11.21;71.68;94524.59;5135081;28;20202;-71
2022/11/05 06:33:03;;;;;;;25.23;21.40;;;;;;;11.26;71.68;94523.50;5135374;28;20207;-72
2022/11/05 06:35:29;;;;;;;25.10;20.67;;;;;;;11.32;71.84;94527.53;5135119;28;20191;-72
2022/11/05 06:38:00;;;;;;;25.88;21.45;;;;;;;11.37;71.48;94529.19;5134971;28;20206;-71
2022/11/05 06:40:27;;;;;;;25.35;19.90;;;;;;;11.42;71.49;94534.38;5134631;27;20638;-72
2022/11/05 06:42:54;;;;;;;24.88;19.60;;;;;;;11.46;71.22;94524.97;5139144;27;20210;-70
2022/11/05 06:45:21;;;;;;;28.83;22.42;;;;;;;11.51;71.35;94526.63;5139120;27;20203;-69
2022/11/05 06:47:48;;;;;;;24.80;20.20;;;;;;;11.55;71.00;94531.06;5138610;27;20208;-71
2022/11/05 06:50:15;;;;;;;26.90;20.50;;;;;;;11.63;70.53;94520.09;5139057;27;20203;-71
2022/11/05 06:52:42;;;;;;;24.10;18.63;;;;;;;11.70;70.73;94518.25;5139558;27;20278;-71
2022/11/05 06:55:10;;;;;;;22.75;20.10;;;;;;;11.77;70.32;94515.56;5139728;27;20188;-71
2022/11/05 06:57:38;;;;;;;26.67;20.38;;;;;;;11.85;70.71;94510.19;5139849;27;20179;-71
2022/11/05 07:00:06;;;;;;;28.35;21.02;;;;;;;11.89;70.55;94511.81;5139038;27;20264;-71
2022/11/05 07:02:33;;;;;;;24.20;20.13;;;;;;;11.96;70.12;94511.91;5138746;27;20199;-71
2022/11/05 07:05:00;;;;;;;25.95;19.83;;;;;;;12.03;70.41;94503.69;5138622;27;20203;-71
2022/11/05 07:07:27;;;;;;;26.95;20.25;;;;;;;12.08;69.78;94494.28;5139559;27;20524;-71
2022/11/05 07:09:55;;;;;;;23.58;20.30;;;;;;;12.13;70.04;94490.38;5139443;27;20189;-71
2022/11/05 07:12:23;;;;;;;23.73;18.92;;;;;;;12.14;69.67;94492.00;5138127;27;20216;-71
2022/11/05 07:14:49;;;;;;;21.80;18.60;;;;;;;12.20;69.86;94493.22;5139637;27;20183;-71
2022/11/05 07:17:17;;;;;;;26.20;18.92;;;;;;;12.28;69.80;94501.25;5139297;27;20511;-71
2022/11/05 07:19:44;;;;;;;23.40;18.83;;;;;;;12.38;69.55;94501.72;5139278;27;20218;-71
2022/11/05 07:22:11;;;;;;;24.80;20.65;;;;;;;12.48;69.67;94501.84;5139203;27;20188;-71
2022/11/05 07:24:39;;;;;;;25.63;19.92;;;;;;;12.56;69.02;94499.16;5138690;27;20260;-71
2022/11/05 07:27:06;;;;;;;24.15;19.08;;;;;;;12.65;68.76;94505.19;5139121;27;20180;-71
2022/11/05 07:29:34;;;;;;;23.15;18.58;;;;;;;12.74;68.29;94506.47;5138967;27;20194;-71
2022/11/05 07:32:01;;;;;;;26.92;20.35;;;;;;;12.85;68.75;94509.31;5138804;27;20199;-71
2022/11/05 07:34:27;;;;;;;21.20;18.65;;;;;;;12.95;68.46;94505.88;5138142;27;20203;-71
2022/11/05 07:36:54;;;;;;;21.67;18.98;;;;;;;13.07;67.37;94490.13;5138180;27;20195;-71
2022/11/05 07:39:22;;;;;;;22.77;18.83;;;;;;;13.19;67.07;94490.66;5137691;27;20231;-71
2022/11/05 07:41:49;;;;;;;22.60;18.45;;;;;;;13.36;67.26;94480.09;5138748;27;20190;-71
2022/11/05 07:44:16;;;;;;;25.70;18.77;;;;;;;13.49;65.60;94473.09;5137967;27;20207;-71
2022/11/05 07:46:44;;;;;;;23.20;18.10;;;;;;;13.60;65.79;94473.16;5138768;27;20259;-71
2022/11/05 07:49:13;;;;;;;21.75;18.40;;;;;;;13.74;65.02;94476.00;5137894;27;20191;-71
2022/11/05 07:51:40;;;;;;;21.73;18.92;;;;;;;13.83;65.32;94478.41;5138317;27;20523;-71
2022/11/05 07:54:07;;;;;;;24.02;19.38;;;;;;;13.87;64.85;94479.22;5136773;27;20191;-73
2022/11/05 07:56:37;;;;;;;22.48;18.75;;;;;;;13.92;65.01;94481.66;5137859;27;20206;-72
2022/11/05 07:59:03;;;;;;;22.45;18.95;;;;;;;13.98;64.20;94474.56;5138097;27;20210;-72
2022/11/05 08:01:30;;;;;;;20.83;17.60;;;;;;;14.08;64.24;94470.22;5138398;27;20191;-70
2022/11/05 08:03:58;;;;;;;22.02;18.40;;;;;;;14.28;64.15;94465.94;5138324;27;20179;-70
2022/11/05 08:06:25;;;;;;;24.92;19.35;;;;;;;14.43;62.96;94459.25;5137461;27;20203;-70
2022/11/05 08:08:52;;;;;;;24.63;18.88;;;;;;;14.45;62.81;94456.91;5138420;27;20187;-69
2022/11/05 08:11:19;;;;;;;25.10;19.25;;;;;;;14.42;62.73;94456.88;5138459;27;20190;-69
2022/11/05 08:13:46;;;;;;;23.83;18.40;;;;;;;14.37;62.51;94462.81;5137305;27;20191;-69
2022/11/05 08:16:14;;;;;;;22.65;18.33;;;;;;;14.33;61.98;94456.44;5137448;27;20507;-70
2022/11/05 08:18:41;;;;;;;23.02;18.10;;;;;;;14.42;62.96;94463.22;5137182;27;20195;-70
2022/11/05 08:21:10;;;;;;;24.65;18.95;;;;;;;14.64;62.65;94466.09;5137771;27;20614;-70
2022/11/05 08:23:37;;;;;;;30.23;19.33;;;;;;;14.79;62.02;94464.91;5138037;27;20187;-70
2022/11/05 08:26:04;;;;;;;25.10;18.65;;;;;;;14.98;60.92;94471.28;5138003;27;20179;-70
2022/11/05 08:28:31;;;;;;;24.92;18.95;;;;;;;15.05;60.95;94465.72;5138013;27;20183;-70
2022/11/05 08:30:58;;;;;;;23.05;18.40;;;;;;;15.12;61.24;94460.97;5136817;27;20191;-70
2022/11/05 08:33:26;;;;;;;19.38;17.20;;;;;;;15.26;59.91;94462.16;5137570;27;20199;-70
2022/11/05 08:35:53;;;;;;;21.48;17.70;;;;;;;15.40;59.93;94470.50;5136739;27;20206;-70
2022/11/05 08:38:21;;;;;;;24.58;19.02;;;;;;;15.53;59.06;94462.53;5137182;27;20233;-70
2022/11/05 08:40:55;;;;;;;26.83;19.02;;;;;;;15.59;59.96;94452.59;5137197;27;20235;-70
2022/11/05 08:43:22;;;;;;;22.30;18.42;;;;;;;15.61;58.84;94458.53;5136456;27;20221;-69
2022/11/05 08:45:50;;;;;;;23.60;19.02;;;;;;;15.56;58.83;94459.75;5137486;27;20179;-69
2022/11/05 08:48:17;;;;;;;29.30;21.27;;;;;;;15.55;59.10;94463.72;5136629;27;20191;-70
2022/11/05 08:50:46;;;;;;;27.67;19.60;;;;;;;15.53;58.97;94465.31;5137683;27;20229;-69
2022/11/05 08:53:13;;;;;;;26.67;20.30;;;;;;;15.45;58.98;94458.97;5137427;27;20517;-70
2022/11/05 08:55:42;;;;;;;24.17;20.13;;;;;;;15.37;59.36;94463.75;5137344;27;20198;-70
2022/11/05 08:58:13;;;;;;;24.00;19.13;;;;;;;15.27;59.10;94458.19;5137331;27;20214;-70
2022/11/05 09:00:41;;;;;;;22.83;18.42;;;;;;;15.18;59.87;94450.25;5136897;27;20199;-70
2022/11/05 09:03:08;;;;;;;23.42;18.80;;;;;;;15.12;59.60;94451.84;5137373;27;20180;-70
2022/11/05 09:05:37;;;;;;;25.80;19.20;;;;;;;15.07;59.98;94450.25;5137028;27;20183;-70
2022/11/05 09:08:05;;;;;;;22.42;18.60;;;;;;;15.00;59.83;94449.47;5137538;27;20187;-70
2022/11/05 09:10:32;;;;;;;24.88;19.35;;;;;;;14.95;59.98;94453.41;5135971;27;20210;-69
2022/11/05 09:13:00;;;;;;;24.92;18.92;;;;;;;14.88;59.71;94454.19;5136251;27;20199;-70
2022/11/05 09:15:28;;;;;;;24.02;19.80;;;;;;;14.83;60.17;94453.81;5135898;27;20206;-70
2022/11/05 09:17:55;;;;;;;23.88;18.27;;;;;;;14.81;60.28;94443.09;5135982;27;20260;-70
2022/11/05 09:20:22;;;;;;;23.75;17.85;;;;;;;14.82;60.27;94438.34;5136460;27;20219;-70
2022/11/05 09:22:49;;;;;;;20.52;16.65;;;;;;;14.84;60.49;94445.06;5136090;27;20183;-70
2022/11/05 09:25:16;;;;;;;21.85;16.90;;;;;;;14.88;59.57;94447.84;5136752;27;20202;-70
2022/11/05 09:27:43;;;;;;;20.02;16.17;;;;;;;14.93;59.50;94439.16;5135779;27;20217;-70
2022/11/05 09:30:13;;;;;;;19.55;16.13;;;;;;;14.96;59.31;94429.22;5136788;27;20184;-70
2022/11/05 09:32:40;;;;;;;17.40;14.98;;;;;;;14.97;59.13;94426.06;5136261;27;20187;-70
2022/11/05 09:35:07;;;;;;;20.80;16.08;;;;;;;14.99;59.39;94426.44;5136757;27;20202;-70
2022/11/05 09:37:35;;;;;;;21.77;16.98;;;;;;;14.99;59.55;94426.44;5135659;27;20195;-69
2022/11/05 09:40:01;;;;;;;19.95;16.10;;;;;;;15.00;59.61;94427.25;5136343;27;20241;-69
2022/11/05 09:42:31;;;;;;;21.67;15.98;;;;;;;15.00;59.46;94422.50;5136261;27;20206;-69
2022/11/05 09:45:00;;;;;;;21.83;15.98;;;;;;;15.04;59.29;94425.28;5136705;27;20195;-70
2022/11/05 09:47:31;;;;;;;23.95;15.70;;;;;;;15.11;59.72;94425.28;5136328;27;20201;-70
2022/11/05 09:49:59;;;;;;;20.92;15.77;;;;;;;15.26;59.87;94420.50;5135481;27;20195;-70
2022/11/05 09:52:29;;;;;;;18.58;14.95;;;;;;;15.35;59.05;94421.66;5136142;27;20190;-70
2022/11/05 09:54:57;;;;;;;20.45;16.15;;;;;;;15.37;58.52;94424.84;5136441;27;20215;-70
2022/11/05 09:57:27;;;;;;;17.85;14.40;;;;;;;15.37;58.73;94435.94;5135685;27;20195;-70
2022/11/05 09:59:57;;;;;;;19.67;15.00;;;;;;;15.36;57.85;94425.25;5118296;27;20219;-69
2022/11/05 10:02:26;;;;;;;21.80;14.93;;;;;;;15.36;57.70;94428.81;5135536;27;20195;-70
2022/11/05 10:04:56;;;;;;;17.77;14.52;;;;;;;15.37;57.71;94422.06;5135351;28;20206;-70
2022/11/05 10:07:26;;;;;;;19.27;14.50;;;;;;;15.40;58.26;94417.69;5135011;28;20199;-70
2022/11/05 10:09:56;;;;;;;20.20;14.00;;;;;;;15.45;57.94;94411.72;5136277;27;20184;-70
2022/11/05 10:12:30;;;;;;;16.98;13.63;;;;;;;15.54;57.43;94416.84;5135354;28;20226;-70
2022/11/05 10:15:05;;;;;;;19.10;13.02;;;;;;;15.56;56.12;94406.94;5134984;28;20210;-72
2022/11/05 10:17:32;;;;;;;17.40;13.18;;;;;;;15.56;55.03;94408.91;5138837;27;20530;-70
2022/11/05 10:20:08;;;;;;;16.38;12.38;;;;;;;15.52;55.72;94405.34;5139625;27;20642;-70
2022/11/05 10:22:36;;;;;;;17.75;13.00;;;;;;;15.51;55.45;94407.34;5140360;27;20268;-70
2022/11/05 10:25:16;;;;;;;15.25;12.77;;;;;;;15.50;54.94;94407.72;5140411;27;20198;-70
2022/11/05 10:27:46;;;;;;;16.95;12.98;;;;;;;15.50;55.43;94399.41;5140254;27;20193;-70
2022/11/05 10:30:15;;;;;;;16.00;12.80;;;;;;;15.49;55.35;94401.38;5140220;27;20185;-70
2022/11/05 10:32:42;;;;;;;17.98;12.68;;;;;;;15.49;55.75;94390.28;5140369;27;20179;-70
2022/11/05 10:35:17;;;;;;;21.75;13.88;;;;;;;15.51;55.75;94399.00;5139222;27;20206;-70
2022/11/05 10:37:44;;;;;;;17.83;12.73;;;;;;;15.52;56.02;94399.81;5139966;27;20255;-70
2022/11/05 10:40:18;;;;;;;17.73;13.38;;;;;;;15.54;56.19;94405.72;5139673;27;20689;-70
2022/11/05 10:42:53;;;;;;;17.95;13.65;;;;;;;15.53;55.25;94406.94;5139600;27;20187;-70
2022/11/05 10:45:28;;;;;;;20.23;13.68;;;;;;;15.57;54.64;94402.16;5139971;27;20179;-70
2022/11/05 10:48:05;;;;;;;15.30;12.73;;;;;;;15.62;54.36;94390.66;5139814;27;20187;-70
2022/11/05 10:50:34;;;;;;;17.25;12.85;;;;;;;15.66;54.70;94399.78;5139245;27;20206;-70
2022/11/05 10:53:03;;;;;;;19.05;12.88;;;;;;;15.67;54.17;94395.03;5138841;27;20206;-70
2022/11/05 10:55:32;;;;;;;15.23;12.55;;;;;;;15.68;54.22;94389.06;5139854;27;20198;-70
2022/11/05 10:58:11;;;;;;;16.35;13.00;;;;;;;15.71;54.24;94384.69;5139773;27;20187;-70
2022/11/05 11:00:37;;;;;;;20.13;13.50;;;;;;;15.74;54.24;94386.66;5139829;27;20211;-70
2022/11/05 11:03:06;;;;;;;19.05;13.02;;;;;;;15.76;53.98;94387.84;5138509;27;20206;-70
2022/11/05 11:05:36;;;;;;;19.92;12.40;;;;;;;15.80;53.47;94380.28;5139578;27;20189;-70
2022/11/05 11:08:16;;;;;;;16.27;13.02;;;;;;;15.83;53.83;94378.66;5139082;27;20218;-70
2022/11/05 11:10:49;;;;;;;18.23;12.63;;;;;;;15.86;53.93;94372.31;5138472;27;20187;-70
2022/11/05 11:13:20;;;;;;;18.27;13.43;;;;;;;15.87;53.39;94366.34;5139052;27;20202;-70
2022/11/05 11:15:49;;;;;;;17.15;13.80;;;;;;;15.89;53.52;94369.50;5138413;27;20195;-70
2022/11/05 11:18:29;;;;;;;19.85;13.50;;;;;;;15.93;52.97;94365.91;5139048;27;20198;-70
2022/11/05 11:21:06;;;;;;;17.70;13.88;;;;;;;15.97;52.75;94366.69;5138231;27;20214;-70
2022/11/05 11:23:37;;;;;;;17.70;12.38;;;;;;;15.99;53.25;94367.09;5139144;27;20202;-70
2022/11/05 11:26:04;;;;;;;14.80;11.43;;;;;;;15.98;52.27;94368.31;5139137;27;20201;-70
2022/11/05 11:28:33;;;;;;;15.73;12.15;;;;;;;15.99;52.39;94361.53;5137609;27;20202;-70
2022/11/05 11:31:05;;;;;;;16.80;12.05;;;;;;;16.00;52.62;94368.66;5139014;27;20183;-70
2022/11/05 11:33:33;;;;;;;14.05;11.30;;;;;;;16.00;52.57;94366.69;5138973;27;20186;-70
2022/11/05 11:36:01;;;;;;;16.80;12.43;;;;;;;15.98;52.23;94362.75;5138707;27;20584;-70
2022/11/05 11:38:30;;;;;;;15.50;10.57;;;;;;;15.98;51.90;94365.53;5138960;27;20198;-70
2022/11/05 11:41:02;;;;;;;14.70;11.18;;;;;;;15.96;51.78;94359.56;5137558;27;20235;-70
2022/11/05 11:43:31;;;;;;;20.02;11.60;;;;;;;15.96;52.50;94360.34;5137968;27;20194;-70
2022/11/05 11:45:58;;;;;;;15.00;10.80;;;;;;;15.97;52.83;94355.56;5137845;27;20199;-70
2022/11/05 11:48:29;;;;;;;14.10;10.90;;;;;;;15.97;51.32;94367.47;5138919;27;20187;-70
2022/11/05 11:50:57;;;;;;;15.57;11.80;;;;;;;15.97;51.24;94356.34;5137985;27;20199;-70
2022/11/05 11:53:29;;;;;;;15.50;11.98;;;;;;;15.96;51.66;94354.78;5137750;27;20210;-70
2022/11/05 11:56:00;;;;;;;14.55;11.68;;;;;;;15.94;51.57;94346.06;5137730;27;20195;-70
2022/11/05 11:58:39;;;;;;;14.18;11.57;;;;;;;15.93;52.53;94352.81;5138276;27;20615;-70
2022/11/05 12:01:27;;;;;;;17.10;11.35;;;;;;;15.91;51.71;94344.09;5138114;27;20228;-70
2022/11/05 12:03:58;;;;;;;16.45;11.80;;;;;;;15.89;51.37;94352.03;5135713;27;20227;-70
2022/11/05 12:06:28;;;;;;;16.45;11.65;;;;;;;15.88;51.65;94359.59;5138457;27;20187;-70
2022/11/05 12:09:03;;;;;;;17.50;12.20;;;;;;;15.86;52.10;94350.84;5138131;27;20199;-70